sensor_id;sensor_type;location;lat;lon;timestamp;temperature;humidity
6164;DHT22;3114;48.362;10.994;2023-07-20T00:02:23;22.20;99.90
6164;DHT22;3114;48.362;10.994;2023-07-20T00:04:50;22.10;99.90
6164;DHT22;3114;48.362;10.994;2023-07-20T00:07:17;22.20;99.90
6164;DHT22;3114;48.362;10.994;2023-07-20T00:09:44;22.20;99.90
6164;DHT22;3114;48.362;10.994;2023-07-20T00:12:11;22.40;99.90
6164;DHT22;3114;48.362;10.994;2023-07-20T00:14:38;22.50;99.90
6164;DHT22;3114;48.362;10.994;2023-07-20T00:17:06;22.40;99.90
6164;DHT22;3114;48.362;10.994;2023-07-20T00:19:33;22.40;99.90
6164;DHT22;3114;48.362;10.994;2023-07-20T00:22:00;22.40;99.90
6164;DHT22;3114;48.362;10.994;2023-07-20T00:24:30;22.30;99.90
6164;DHT22;3114;48.362;10.994;2023-07-20T00:26:58;22.30;99.90
6164;DHT22;3114;48.362;10.994;2023-07-20T00:29:26;22.10;99.90
6164;DHT22;3114;48.362;10.994;2023-07-20T00:31:53;22.20;99.90
6164;DHT22;3114;48.362;10.994;2023-07-20T00:34:21;22.40;99.90
6164;DHT22;3114;48.362;10.994;2023-07-20T00:36:48;22.00;99.90
6164;DHT22;3114;48.362;10.994;2023-07-20T00:39:15;22.00;99.90
6164;DHT22;3114;48.362;10.994;2023-07-20T00:41:42;21.80;99.90
6164;DHT22;3114;48.362;10.994;2023-07-20T00:44:09;21.80;99.90
6164;DHT22;3114;48.362;10.994;2023-07-20T00:46:36;21.80;99.90
6164;DHT22;3114;48.362;10.994;2023-07-20T00:49:04;21.90;99.90
6164;DHT22;3114;48.362;10.994;2023-07-20T00:51:33;21.90;99.90
6164;DHT22;3114;48.362;10.994;2023-07-20T00:54:00;21.70;99.90
6164;DHT22;3114;48.362;10.994;2023-07-20T00:56:28;21.90;99.90
6164;DHT22;3114;48.362;10.994;2023-07-20T00:58:55;21.80;99.90
6164;DHT22;3114;48.362;10.994;2023-07-20T01:01:22;21.70;99.90
6164;DHT22;3114;48.362;10.994;2023-07-20T01:03:49;21.40;99.90
6164;DHT22;3114;48.362;10.994;2023-07-20T01:06:24;21.40;99.90
6164;DHT22;3114;48.362;10.994;2023-07-20T01:09:01;21.30;99.90
6164;DHT22;3114;48.362;10.994;2023-07-20T01:11:34;21.40;99.90
6164;DHT22;3114;48.362;10.994;2023-07-20T01:14:03;21.50;99.90
6164;DHT22;3114;48.362;10.994;2023-07-20T01:16:32;21.40;99.90
6164;DHT22;3114;48.362;10.994;2023-07-20T01:18:59;21.40;99.90
6164;DHT22;3114;48.362;10.994;2023-07-20T01:21:34;21.50;99.90
6164;DHT22;3114;48.362;10.994;2023-07-20T01:24:42;21.40;99.90
6164;DHT22;3114;48.362;10.994;2023-07-20T01:27:49;21.60;99.90
6164;DHT22;3114;48.362;10.994;2023-07-20T01:30:45;21.60;99.90
6164;DHT22;3114;48.362;10.994;2023-07-20T01:33:17;21.60;99.90
6164;DHT22;3114;48.362;10.994;2023-07-20T01:35:47;21.50;99.90
6164;DHT22;3114;48.362;10.994;2023-07-20T01:38:16;21.40;99.90
6164;DHT22;3114;48.362;10.994;2023-07-20T01:40:43;21.40;99.90
6164;DHT22;3114;48.362;10.994;2023-07-20T01:43:10;21.10;99.90
6164;DHT22;3114;48.362;10.994;2023-07-20T01:45:38;21.00;99.90
6164;DHT22;3114;48.362;10.994;2023-07-20T01:48:05;20.80;99.90
6164;DHT22;3114;48.362;10.994;2023-07-20T01:50:33;21.00;99.90
6164;DHT22;3114;48.362;10.994;2023-07-20T01:53:00;21.00;99.90
6164;DHT22;3114;48.362;10.994;2023-07-20T01:55:27;20.90;99.90
6164;DHT22;3114;48.362;10.994;2023-07-20T01:57:55;20.90;99.90
6164;DHT22;3114;48.362;10.994;2023-07-20T02:00:22;20.70;99.90
6164;DHT22;3114;48.362;10.994;2023-07-20T02:02:50;20.90;99.90
6164;DHT22;3114;48.362;10.994;2023-07-20T02:05:17;20.90;99.90
6164;DHT22;3114;48.362;10.994;2023-07-20T02:07:45;20.70;99.90
6164;DHT22;3114;48.362;10.994;2023-07-20T02:10:12;20.60;99.90
6164;DHT22;3114;48.362;10.994;2023-07-20T02:12:39;20.60;99.90
6164;DHT22;3114;48.362;10.994;2023-07-20T02:15:07;20.60;99.90
6164;DHT22;3114;48.362;10.994;2023-07-20T02:17:34;20.70;99.90
6164;DHT22;3114;48.362;10.994;2023-07-20T02:20:01;20.60;99.90
6164;DHT22;3114;48.362;10.994;2023-07-20T02:22:28;20.60;99.90
6164;DHT22;3114;48.362;10.994;2023-07-20T02:24:56;20.60;99.90
6164;DHT22;3114;48.362;10.994;2023-07-20T02:27:23;20.70;99.90
6164;DHT22;3114;48.362;10.994;2023-07-20T02:29:50;20.80;99.90
6164;DHT22;3114;48.362;10.994;2023-07-20T02:32:17;20.60;99.90
6164;DHT22;3114;48.362;10.994;2023-07-20T02:34:44;20.50;99.90
6164;DHT22;3114;48.362;10.994;2023-07-20T02:37:11;20.40;99.90
6164;DHT22;3114;48.362;10.994;2023-07-20T02:39:38;20.50;99.90
6164;DHT22;3114;48.362;10.994;2023-07-20T02:42:07;20.60;99.90
6164;DHT22;3114;48.362;10.994;2023-07-20T02:44:34;20.70;99.90
6164;DHT22;3114;48.362;10.994;2023-07-20T02:47:01;20.80;99.90
6164;DHT22;3114;48.362;10.994;2023-07-20T02:49:28;20.80;99.90
6164;DHT22;3114;48.362;10.994;2023-07-20T02:51:55;20.90;99.90
6164;DHT22;3114;48.362;10.994;2023-07-20T02:54:22;20.70;99.90
6164;DHT22;3114;48.362;10.994;2023-07-20T02:56:49;20.40;99.90
6164;DHT22;3114;48.362;10.994;2023-07-20T02:59:17;20.50;99.90
6164;DHT22;3114;48.362;10.994;2023-07-20T03:01:44;20.30;99.90
6164;DHT22;3114;48.362;10.994;2023-07-20T03:04:11;20.00;99.90
6164;DHT22;3114;48.362;10.994;2023-07-20T03:06:38;19.90;99.90
6164;DHT22;3114;48.362;10.994;2023-07-20T03:09:05;19.90;99.90
6164;DHT22;3114;48.362;10.994;2023-07-20T03:11:32;19.80;99.90
6164;DHT22;3114;48.362;10.994;2023-07-20T03:13:59;19.90;99.90
6164;DHT22;3114;48.362;10.994;2023-07-20T03:16:28;19.80;99.90
6164;DHT22;3114;48.362;10.994;2023-07-20T03:18:58;19.90;99.90
6164;DHT22;3114;48.362;10.994;2023-07-20T03:21:25;19.90;99.90
6164;DHT22;3114;48.362;10.994;2023-07-20T03:23:52;19.90;99.90
6164;DHT22;3114;48.362;10.994;2023-07-20T03:26:19;20.00;99.90
6164;DHT22;3114;48.362;10.994;2023-07-20T03:28:46;20.20;99.90
6164;DHT22;3114;48.362;10.994;2023-07-20T03:31:13;20.00;99.90
6164;DHT22;3114;48.362;10.994;2023-07-20T03:33:42;19.90;99.90
6164;DHT22;3114;48.362;10.994;2023-07-20T03:36:09;20.20;99.90
6164;DHT22;3114;48.362;10.994;2023-07-20T03:38:36;20.10;99.90
6164;DHT22;3114;48.362;10.994;2023-07-20T03:41:03;20.10;99.90
6164;DHT22;3114;48.362;10.994;2023-07-20T03:43:30;20.10;99.90
6164;DHT22;3114;48.362;10.994;2023-07-20T03:46:00;20.20;99.90
6164;DHT22;3114;48.362;10.994;2023-07-20T03:48:32;20.10;99.90
6164;DHT22;3114;48.362;10.994;2023-07-20T03:51:01;20.20;99.90
6164;DHT22;3114;48.362;10.994;2023-07-20T03:53:27;20.10;99.90
6164;DHT22;3114;48.362;10.994;2023-07-20T03:55:54;19.90;99.90
6164;DHT22;3114;48.362;10.994;2023-07-20T03:58:21;20.20;99.90
6164;DHT22;3114;48.362;10.994;2023-07-20T04:00:50;19.80;99.90
6164;DHT22;3114;48.362;10.994;2023-07-20T04:03:17;19.60;99.90
6164;DHT22;3114;48.362;10.994;2023-07-20T04:05:45;19.70;99.90
6164;DHT22;3114;48.362;10.994;2023-07-20T04:08:13;19.70;99.90
6164;DHT22;3114;48.362;10.994;2023-07-20T04:10:43;19.50;99.90
6164;DHT22;3114;48.362;10.994;2023-07-20T04:13:10;19.50;99.90
6164;DHT22;3114;48.362;10.994;2023-07-20T04:15:37;19.30;99.90
6164;DHT22;3114;48.362;10.994;2023-07-20T04:18:04;19.40;99.90
6164;DHT22;3114;48.362;10.994;2023-07-20T04:20:31;19.40;99.90
6164;DHT22;3114;48.362;10.994;2023-07-20T04:22:58;19.10;99.90
6164;DHT22;3114;48.362;10.994;2023-07-20T04:25:26;19.10;99.90
6164;DHT22;3114;48.362;10.994;2023-07-20T04:27:53;19.00;99.90
6164;DHT22;3114;48.362;10.994;2023-07-20T04:30:21;19.00;99.90
6164;DHT22;3114;48.362;10.994;2023-07-20T04:32:48;19.30;99.90
6164;DHT22;3114;48.362;10.994;2023-07-20T04:35:45;19.30;99.90
6164;DHT22;3114;48.362;10.994;2023-07-20T04:38:04;19.40;99.90
6164;DHT22;3114;48.362;10.994;2023-07-20T04:40:33;19.10;99.90
6164;DHT22;3114;48.362;10.994;2023-07-20T04:43:00;19.20;99.90
6164;DHT22;3114;48.362;10.994;2023-07-20T04:45:26;19.00;99.90
6164;DHT22;3114;48.362;10.994;2023-07-20T04:47:53;19.10;99.90
6164;DHT22;3114;48.362;10.994;2023-07-20T04:50:20;19.10;99.90
6164;DHT22;3114;48.362;10.994;2023-07-20T04:52:47;19.10;99.90
6164;DHT22;3114;48.362;10.994;2023-07-20T04:55:14;19.10;99.90
6164;DHT22;3114;48.362;10.994;2023-07-20T04:57:42;19.30;99.90
6164;DHT22;3114;48.362;10.994;2023-07-20T05:00:10;19.00;99.90
6164;DHT22;3114;48.362;10.994;2023-07-20T05:02:38;19.00;99.90
6164;DHT22;3114;48.362;10.994;2023-07-20T05:05:06;19.20;99.90
6164;DHT22;3114;48.362;10.994;2023-07-20T05:07:32;19.20;99.90
6164;DHT22;3114;48.362;10.994;2023-07-20T05:09:59;19.30;99.90
6164;DHT22;3114;48.362;10.994;2023-07-20T05:12:26;19.20;99.90
6164;DHT22;3114;48.362;10.994;2023-07-20T05:14:54;19.20;99.90
6164;DHT22;3114;48.362;10.994;2023-07-20T05:17:21;19.20;99.90
6164;DHT22;3114;48.362;10.994;2023-07-20T05:19:48;19.10;99.90
6164;DHT22;3114;48.362;10.994;2023-07-20T05:22:15;19.10;99.90
6164;DHT22;3114;48.362;10.994;2023-07-20T05:24:42;19.40;99.90
6164;DHT22;3114;48.362;10.994;2023-07-20T05:27:09;19.20;99.90
6164;DHT22;3114;48.362;10.994;2023-07-20T05:29:35;18.90;99.90
6164;DHT22;3114;48.362;10.994;2023-07-20T05:32:05;19.00;99.90
6164;DHT22;3114;48.362;10.994;2023-07-20T05:34:32;19.10;99.90
6164;DHT22;3114;48.362;10.994;2023-07-20T05:37:10;19.20;99.90
6164;DHT22;3114;48.362;10.994;2023-07-20T05:39:37;19.20;99.90
6164;DHT22;3114;48.362;10.994;2023-07-20T05:42:05;19.20;99.90
6164;DHT22;3114;48.362;10.994;2023-07-20T05:44:32;19.40;99.90
6164;DHT22;3114;48.362;10.994;2023-07-20T05:46:59;19.30;99.90
6164;DHT22;3114;48.362;10.994;2023-07-20T05:49:27;19.10;99.90
6164;DHT22;3114;48.362;10.994;2023-07-20T05:51:54;18.90;99.90
6164;DHT22;3114;48.362;10.994;2023-07-20T05:54:21;18.90;99.90
6164;DHT22;3114;48.362;10.994;2023-07-20T05:56:48;19.00;99.90
6164;DHT22;3114;48.362;10.994;2023-07-20T05:59:15;19.10;99.90
6164;DHT22;3114;48.362;10.994;2023-07-20T06:01:42;19.20;99.90
6164;DHT22;3114;48.362;10.994;2023-07-20T06:04:09;19.20;99.90
6164;DHT22;3114;48.362;10.994;2023-07-20T06:06:37;19.40;99.90
6164;DHT22;3114;48.362;10.994;2023-07-20T06:09:04;19.30;99.90
6164;DHT22;3114;48.362;10.994;2023-07-20T06:11:35;19.30;99.90
6164;DHT22;3114;48.362;10.994;2023-07-20T06:14:02;19.40;99.90
6164;DHT22;3114;48.362;10.994;2023-07-20T06:16:28;19.10;99.90
6164;DHT22;3114;48.362;10.994;2023-07-20T06:18:55;19.10;99.90
6164;DHT22;3114;48.362;10.994;2023-07-20T06:21:22;19.20;99.90
6164;DHT22;3114;48.362;10.994;2023-07-20T06:23:51;19.10;99.90
6164;DHT22;3114;48.362;10.994;2023-07-20T06:26:17;19.30;99.90
6164;DHT22;3114;48.362;10.994;2023-07-20T06:28:45;19.40;99.90
6164;DHT22;3114;48.362;10.994;2023-07-20T06:31:12;19.50;99.90
6164;DHT22;3114;48.362;10.994;2023-07-20T06:33:39;19.60;99.90
6164;DHT22;3114;48.362;10.994;2023-07-20T06:36:06;19.30;99.90
6164;DHT22;3114;48.362;10.994;2023-07-20T06:38:33;19.10;99.90
6164;DHT22;3114;48.362;10.994;2023-07-20T06:41:01;19.20;99.90
6164;DHT22;3114;48.362;10.994;2023-07-20T06:43:28;19.10;99.90
6164;DHT22;3114;48.362;10.994;2023-07-20T06:45:55;18.90;99.90
6164;DHT22;3114;48.362;10.994;2023-07-20T06:48:22;19.20;99.90
6164;DHT22;3114;48.362;10.994;2023-07-20T06:50:49;19.50;99.90
6164;DHT22;3114;48.362;10.994;2023-07-20T06:53:16;19.60;99.90
6164;DHT22;3114;48.362;10.994;2023-07-20T06:55:43;19.40;99.90
6164;DHT22;3114;48.362;10.994;2023-07-20T06:58:11;19.30;99.90
6164;DHT22;3114;48.362;10.994;2023-07-20T07:00:38;19.60;99.90
6164;DHT22;3114;48.362;10.994;2023-07-20T07:03:08;19.70;99.90
6164;DHT22;3114;48.362;10.994;2023-07-20T07:05:36;19.60;99.90
6164;DHT22;3114;48.362;10.994;2023-07-20T07:08:04;20.10;99.90
6164;DHT22;3114;48.362;10.994;2023-07-20T07:10:31;19.90;99.90
6164;DHT22;3114;48.362;10.994;2023-07-20T07:12:58;19.50;99.90
6164;DHT22;3114;48.362;10.994;2023-07-20T07:15:27;19.60;99.90
6164;DHT22;3114;48.362;10.994;2023-07-20T07:17:54;19.80;99.90
6164;DHT22;3114;48.362;10.994;2023-07-20T07:20:21;19.80;99.90
6164;DHT22;3114;48.362;10.994;2023-07-20T07:22:50;20.00;99.90
6164;DHT22;3114;48.362;10.994;2023-07-20T07:25:18;20.20;99.90
6164;DHT22;3114;48.362;10.994;2023-07-20T07:27:45;19.70;99.90
6164;DHT22;3114;48.362;10.994;2023-07-20T07:30:12;19.70;99.90
6164;DHT22;3114;48.362;10.994;2023-07-20T07:32:41;20.00;99.90
6164;DHT22;3114;48.362;10.994;2023-07-20T07:35:08;20.10;99.90
6164;DHT22;3114;48.362;10.994;2023-07-20T07:37:35;20.00;99.90
6164;DHT22;3114;48.362;10.994;2023-07-20T07:40:03;20.00;99.90
6164;DHT22;3114;48.362;10.994;2023-07-20T07:42:31;20.00;99.90
6164;DHT22;3114;48.362;10.994;2023-07-20T07:44:58;20.00;99.90
6164;DHT22;3114;48.362;10.994;2023-07-20T07:47:25;20.00;99.90
6164;DHT22;3114;48.362;10.994;2023-07-20T07:49:53;19.70;99.90
6164;DHT22;3114;48.362;10.994;2023-07-20T07:52:20;19.90;99.90
6164;DHT22;3114;48.362;10.994;2023-07-20T07:54:47;20.00;99.90
6164;DHT22;3114;48.362;10.994;2023-07-20T07:57:14;20.20;99.90
6164;DHT22;3114;48.362;10.994;2023-07-20T07:59:41;20.40;99.90
6164;DHT22;3114;48.362;10.994;2023-07-20T08:02:08;20.60;99.90
6164;DHT22;3114;48.362;10.994;2023-07-20T08:04:35;20.20;99.90
6164;DHT22;3114;48.362;10.994;2023-07-20T08:07:04;20.40;99.90
6164;DHT22;3114;48.362;10.994;2023-07-20T08:09:31;20.60;99.90
6164;DHT22;3114;48.362;10.994;2023-07-20T08:11:58;20.70;99.90
6164;DHT22;3114;48.362;10.994;2023-07-20T08:14:25;20.80;99.90
6164;DHT22;3114;48.362;10.994;2023-07-20T08:16:51;20.90;99.90
6164;DHT22;3114;48.362;10.994;2023-07-20T08:19:20;20.90;99.90
6164;DHT22;3114;48.362;10.994;2023-07-20T08:21:47;20.50;99.90
6164;DHT22;3114;48.362;10.994;2023-07-20T08:24:15;20.50;99.90
6164;DHT22;3114;48.362;10.994;2023-07-20T08:26:43;20.30;99.90
6164;DHT22;3114;48.362;10.994;2023-07-20T08:29:10;20.40;99.90
6164;DHT22;3114;48.362;10.994;2023-07-20T08:31:37;20.40;99.90
6164;DHT22;3114;48.362;10.994;2023-07-20T08:34:03;20.00;99.90
6164;DHT22;3114;48.362;10.994;2023-07-20T08:36:30;20.00;99.90
6164;DHT22;3114;48.362;10.994;2023-07-20T08:38:58;20.00;99.90
6164;DHT22;3114;48.362;10.994;2023-07-20T08:41:26;20.10;99.90
6164;DHT22;3114;48.362;10.994;2023-07-20T08:43:55;20.10;99.90
6164;DHT22;3114;48.362;10.994;2023-07-20T08:46:23;20.20;99.90
6164;DHT22;3114;48.362;10.994;2023-07-20T08:48:51;20.10;99.90
6164;DHT22;3114;48.362;10.994;2023-07-20T08:51:20;20.30;99.90
6164;DHT22;3114;48.362;10.994;2023-07-20T08:53:48;20.30;99.90
6164;DHT22;3114;48.362;10.994;2023-07-20T08:56:18;20.40;99.90
6164;DHT22;3114;48.362;10.994;2023-07-20T08:58:47;20.50;99.90
6164;DHT22;3114;48.362;10.994;2023-07-20T09:01:15;20.50;99.90
6164;DHT22;3114;48.362;10.994;2023-07-20T09:03:45;20.50;99.90
6164;DHT22;3114;48.362;10.994;2023-07-20T09:06:12;20.50;99.90
6164;DHT22;3114;48.362;10.994;2023-07-20T09:08:40;20.50;99.90
6164;DHT22;3114;48.362;10.994;2023-07-20T09:11:07;20.70;99.90
6164;DHT22;3114;48.362;10.994;2023-07-20T09:13:34;20.70;99.90
6164;DHT22;3114;48.362;10.994;2023-07-20T09:16:03;20.70;99.90
6164;DHT22;3114;48.362;10.994;2023-07-20T09:18:31;20.60;99.90
6164;DHT22;3114;48.362;10.994;2023-07-20T09:20:58;20.60;99.90
6164;DHT22;3114;48.362;10.994;2023-07-20T09:23:30;20.80;99.90
6164;DHT22;3114;48.362;10.994;2023-07-20T09:25:58;20.70;99.90
6164;DHT22;3114;48.362;10.994;2023-07-20T09:28:26;20.80;99.90
6164;DHT22;3114;48.362;10.994;2023-07-20T09:30:54;20.90;99.90
6164;DHT22;3114;48.362;10.994;2023-07-20T09:33:24;21.10;99.90
6164;DHT22;3114;48.362;10.994;2023-07-20T09:35:51;21.20;99.90
6164;DHT22;3114;48.362;10.994;2023-07-20T09:38:18;21.20;99.90
6164;DHT22;3114;48.362;10.994;2023-07-20T09:40:45;21.30;99.90
6164;DHT22;3114;48.362;10.994;2023-07-20T09:43:12;21.50;99.90
6164;DHT22;3114;48.362;10.994;2023-07-20T09:45:43;21.40;99.90
6164;DHT22;3114;48.362;10.994;2023-07-20T09:48:11;21.50;99.90
6164;DHT22;3114;48.362;10.994;2023-07-20T09:50:48;21.40;99.90
6164;DHT22;3114;48.362;10.994;2023-07-20T09:53:16;21.10;99.90
6164;DHT22;3114;48.362;10.994;2023-07-20T09:55:44;21.30;99.90
6164;DHT22;3114;48.362;10.994;2023-07-20T09:58:12;21.50;99.90
6164;DHT22;3114;48.362;10.994;2023-07-20T10:00:40;21.80;99.90
6164;DHT22;3114;48.362;10.994;2023-07-20T10:03:10;21.70;99.90
6164;DHT22;3114;48.362;10.994;2023-07-20T10:05:43;21.80;99.90
6164;DHT22;3114;48.362;10.994;2023-07-20T10:08:12;21.60;99.90
6164;DHT22;3114;48.362;10.994;2023-07-20T10:10:41;21.60;99.90
6164;DHT22;3114;48.362;10.994;2023-07-20T10:13:18;21.60;99.90
6164;DHT22;3114;48.362;10.994;2023-07-20T10:15:48;21.30;99.90
6164;DHT22;3114;48.362;10.994;2023-07-20T10:18:22;21.40;99.90
6164;DHT22;3114;48.362;10.994;2023-07-20T10:20:51;21.60;99.90
6164;DHT22;3114;48.362;10.994;2023-07-20T10:23:21;21.80;99.90
6164;DHT22;3114;48.362;10.994;2023-07-20T10:25:48;21.90;99.90
6164;DHT22;3114;48.362;10.994;2023-07-20T10:28:16;21.80;99.90
6164;DHT22;3114;48.362;10.994;2023-07-20T10:30:44;21.70;99.90
6164;DHT22;3114;48.362;10.994;2023-07-20T10:33:12;21.90;99.90
6164;DHT22;3114;48.362;10.994;2023-07-20T10:35:54;22.10;99.90
6164;DHT22;3114;48.362;10.994;2023-07-20T10:38:38;22.20;99.90
6164;DHT22;3114;48.362;10.994;2023-07-20T10:41:15;21.80;99.90
6164;DHT22;3114;48.362;10.994;2023-07-20T10:43:42;21.80;99.90
6164;DHT22;3114;48.362;10.994;2023-07-20T10:46:11;21.90;99.90
6164;DHT22;3114;48.362;10.994;2023-07-20T10:48:58;22.00;99.90
6164;DHT22;3114;48.362;10.994;2023-07-20T10:51:27;22.10;99.90
6164;DHT22;3114;48.362;10.994;2023-07-20T10:53:55;22.30;99.90
6164;DHT22;3114;48.362;10.994;2023-07-20T10:56:26;22.20;99.90
6164;DHT22;3114;48.362;10.994;2023-07-20T10:58:56;22.10;99.90
6164;DHT22;3114;48.362;10.994;2023-07-20T11:01:27;22.10;99.90
6164;DHT22;3114;48.362;10.994;2023-07-20T11:03:57;22.30;99.90
6164;DHT22;3114;48.362;10.994;2023-07-20T11:06:33;22.20;99.90
6164;DHT22;3114;48.362;10.994;2023-07-20T11:09:06;22.20;99.90
6164;DHT22;3114;48.362;10.994;2023-07-20T11:11:35;22.40;99.90
6164;DHT22;3114;48.362;10.994;2023-07-20T11:14:03;22.80;99.90
6164;DHT22;3114;48.362;10.994;2023-07-20T11:16:35;23.30;99.90
6164;DHT22;3114;48.362;10.994;2023-07-20T11:19:03;23.30;99.90
6164;DHT22;3114;48.362;10.994;2023-07-20T11:21:37;23.70;99.90
6164;DHT22;3114;48.362;10.994;2023-07-20T11:24:05;23.70;99.90
6164;DHT22;3114;48.362;10.994;2023-07-20T11:26:40;23.30;99.90
6164;DHT22;3114;48.362;10.994;2023-07-20T11:29:07;23.10;99.90
6164;DHT22;3114;48.362;10.994;2023-07-20T11:31:38;22.80;99.90
6164;DHT22;3114;48.362;10.994;2023-07-20T11:34:05;23.00;99.90
6164;DHT22;3114;48.362;10.994;2023-07-20T11:36:34;23.40;99.90
6164;DHT22;3114;48.362;10.994;2023-07-20T11:39:03;23.80;99.90
6164;DHT22;3114;48.362;10.994;2023-07-20T11:41:31;23.80;99.90
6164;DHT22;3114;48.362;10.994;2023-07-20T11:43:58;23.70;99.90
6164;DHT22;3114;48.362;10.994;2023-07-20T11:46:25;23.80;99.90
6164;DHT22;3114;48.362;10.994;2023-07-20T11:48:57;24.20;99.90
6164;DHT22;3114;48.362;10.994;2023-07-20T11:51:25;24.50;99.90
6164;DHT22;3114;48.362;10.994;2023-07-20T11:53:53;24.70;99.90
6164;DHT22;3114;48.362;10.994;2023-07-20T11:56:22;25.00;99.90
6164;DHT22;3114;48.362;10.994;2023-07-20T11:58:53;25.00;99.90
6164;DHT22;3114;48.362;10.994;2023-07-20T12:01:20;25.00;99.90
6164;DHT22;3114;48.362;10.994;2023-07-20T12:03:48;25.00;99.90
6164;DHT22;3114;48.362;10.994;2023-07-20T12:06:15;24.30;99.90
6164;DHT22;3114;48.362;10.994;2023-07-20T12:08:43;24.10;99.90
6164;DHT22;3114;48.362;10.994;2023-07-20T12:11:10;24.80;99.90
6164;DHT22;3114;48.362;10.994;2023-07-20T12:13:42;24.90;99.90
6164;DHT22;3114;48.362;10.994;2023-07-20T12:16:10;24.70;99.90
6164;DHT22;3114;48.362;10.994;2023-07-20T12:18:38;24.30;99.90
6164;DHT22;3114;48.362;10.994;2023-07-20T12:21:06;24.60;99.90
6164;DHT22;3114;48.362;10.994;2023-07-20T12:23:38;24.90;99.90
6164;DHT22;3114;48.362;10.994;2023-07-20T12:26:08;24.80;99.90
6164;DHT22;3114;48.362;10.994;2023-07-20T12:28:40;25.10;99.90
6164;DHT22;3114;48.362;10.994;2023-07-20T12:31:08;25.70;99.90
6164;DHT22;3114;48.362;10.994;2023-07-20T12:33:35;26.00;99.90
6164;DHT22;3114;48.362;10.994;2023-07-20T12:36:02;26.30;99.90
6164;DHT22;3114;48.362;10.994;2023-07-20T12:38:29;26.30;99.90
6164;DHT22;3114;48.362;10.994;2023-07-20T12:40:56;26.00;99.90
6164;DHT22;3114;48.362;10.994;2023-07-20T12:43:24;25.30;99.90
6164;DHT22;3114;48.362;10.994;2023-07-20T12:45:55;26.50;99.90
6164;DHT22;3114;48.362;10.994;2023-07-20T12:48:39;29.40;99.90
6164;DHT22;3114;48.362;10.994;2023-07-20T12:51:08;28.80;99.90
6164;DHT22;3114;48.362;10.994;2023-07-20T12:53:35;28.10;99.90
6164;DHT22;3114;48.362;10.994;2023-07-20T12:56:07;29.00;99.90
6164;DHT22;3114;48.362;10.994;2023-07-20T12:58:35;30.60;99.90
6164;DHT22;3114;48.362;10.994;2023-07-20T13:01:06;30.50;99.90
6164;DHT22;3114;48.362;10.994;2023-07-20T13:03:33;31.80;99.90
6164;DHT22;3114;48.362;10.994;2023-07-20T13:06:07;32.60;99.90
6164;DHT22;3114;48.362;10.994;2023-07-20T13:08:38;33.60;99.90
6164;DHT22;3114;48.362;10.994;2023-07-20T13:11:06;31.80;99.90
6164;DHT22;3114;48.362;10.994;2023-07-20T13:13:33;32.60;99.90
6164;DHT22;3114;48.362;10.994;2023-07-20T13:16:14;30.40;99.90
6164;DHT22;3114;48.362;10.994;2023-07-20T13:19:05;32.10;99.90
6164;DHT22;3114;48.362;10.994;2023-07-20T13:21:40;32.30;99.90
6164;DHT22;3114;48.362;10.994;2023-07-20T13:24:08;32.40;99.90
6164;DHT22;3114;48.362;10.994;2023-07-20T13:26:42;34.50;99.90
6164;DHT22;3114;48.362;10.994;2023-07-20T13:29:20;35.80;99.90
6164;DHT22;3114;48.362;10.994;2023-07-20T13:31:57;36.40;99.90
6164;DHT22;3114;48.362;10.994;2023-07-20T13:34:28;34.50;99.90
6164;DHT22;3114;48.362;10.994;2023-07-20T13:36:55;31.40;99.90
6164;DHT22;3114;48.362;10.994;2023-07-20T13:39:22;30.10;99.90
6164;DHT22;3114;48.362;10.994;2023-07-20T13:41:52;30.40;99.90
6164;DHT22;3114;48.362;10.994;2023-07-20T13:44:46;30.40;99.90
6164;DHT22;3114;48.362;10.994;2023-07-20T13:47:22;29.40;99.90
6164;DHT22;3114;48.362;10.994;2023-07-20T13:50:01;30.40;99.90
6164;DHT22;3114;48.362;10.994;2023-07-20T13:52:28;33.10;99.90
6164;DHT22;3114;48.362;10.994;2023-07-20T13:54:55;33.60;99.90
6164;DHT22;3114;48.362;10.994;2023-07-20T13:57:28;36.00;99.90
6164;DHT22;3114;48.362;10.994;2023-07-20T13:59:55;37.50;99.90
6164;DHT22;3114;48.362;10.994;2023-07-20T14:02:29;37.00;99.90
6164;DHT22;3114;48.362;10.994;2023-07-20T14:04:56;34.90;99.90
6164;DHT22;3114;48.362;10.994;2023-07-20T14:07:26;33.80;99.90
6164;DHT22;3114;48.362;10.994;2023-07-20T14:09:53;34.10;99.90
6164;DHT22;3114;48.362;10.994;2023-07-20T14:12:23;35.00;99.90
6164;DHT22;3114;48.362;10.994;2023-07-20T14:15:12;35.10;99.90
6164;DHT22;3114;48.362;10.994;2023-07-20T14:17:40;34.60;99.90
6164;DHT22;3114;48.362;10.994;2023-07-20T14:20:20;35.40;99.90
6164;DHT22;3114;48.362;10.994;2023-07-20T14:22:57;35.80;99.90
6164;DHT22;3114;48.362;10.994;2023-07-20T14:25:42;36.80;99.90
6164;DHT22;3114;48.362;10.994;2023-07-20T14:28:17;35.80;99.90
6164;DHT22;3114;48.362;10.994;2023-07-20T14:30:57;34.40;99.90
6164;DHT22;3114;48.362;10.994;2023-07-20T14:33:42;33.00;99.90
6164;DHT22;3114;48.362;10.994;2023-07-20T14:36:12;32.10;99.90
6164;DHT22;3114;48.362;10.994;2023-07-20T14:38:39;31.10;99.90
6164;DHT22;3114;48.362;10.994;2023-07-20T14:41:07;30.40;99.90
6164;DHT22;3114;48.362;10.994;2023-07-20T14:43:34;30.00;99.90
6164;DHT22;3114;48.362;10.994;2023-07-20T14:46:02;30.90;99.90
6164;DHT22;3114;48.362;10.994;2023-07-20T14:48:41;31.50;99.90
6164;DHT22;3114;48.362;10.994;2023-07-20T14:51:08;30.60;99.90
6164;DHT22;3114;48.362;10.994;2023-07-20T14:53:35;31.00;99.90
6164;DHT22;3114;48.362;10.994;2023-07-20T14:56:02;31.00;99.90
6164;DHT22;3114;48.362;10.994;2023-07-20T14:58:29;31.00;99.90
6164;DHT22;3114;48.362;10.994;2023-07-20T15:00:56;30.60;99.90
6164;DHT22;3114;48.362;10.994;2023-07-20T15:03:25;30.70;99.90
6164;DHT22;3114;48.362;10.994;2023-07-20T15:05:56;30.40;99.90
6164;DHT22;3114;48.362;10.994;2023-07-20T15:08:23;30.30;99.90
6164;DHT22;3114;48.362;10.994;2023-07-20T15:10:55;29.80;99.90
6164;DHT22;3114;48.362;10.994;2023-07-20T15:13:22;29.80;99.90
6164;DHT22;3114;48.362;10.994;2023-07-20T15:15:49;29.00;99.90
6164;DHT22;3114;48.362;10.994;2023-07-20T15:18:16;28.80;99.90
6164;DHT22;3114;48.362;10.994;2023-07-20T15:20:43;28.10;99.90
6164;DHT22;3114;48.362;10.994;2023-07-20T15:23:11;28.60;99.90
6164;DHT22;3114;48.362;10.994;2023-07-20T15:25:38;28.40;99.90
6164;DHT22;3114;48.362;10.994;2023-07-20T15:28:05;28.50;99.90
6164;DHT22;3114;48.362;10.994;2023-07-20T15:30:32;28.90;99.90
6164;DHT22;3114;48.362;10.994;2023-07-20T15:33:01;29.30;99.90
6164;DHT22;3114;48.362;10.994;2023-07-20T15:35:31;29.10;99.90
6164;DHT22;3114;48.362;10.994;2023-07-20T15:38:00;27.90;99.90
6164;DHT22;3114;48.362;10.994;2023-07-20T15:40:29;28.20;99.90
6164;DHT22;3114;48.362;10.994;2023-07-20T15:42:57;28.00;99.90
6164;DHT22;3114;48.362;10.994;2023-07-20T15:45:24;28.10;99.90
6164;DHT22;3114;48.362;10.994;2023-07-20T15:47:51;27.10;99.90
6164;DHT22;3114;48.362;10.994;2023-07-20T15:50:18;26.60;99.90
6164;DHT22;3114;48.362;10.994;2023-07-20T15:52:45;26.70;99.90
6164;DHT22;3114;48.362;10.994;2023-07-20T15:55:12;27.40;99.90
6164;DHT22;3114;48.362;10.994;2023-07-20T15:57:40;27.70;99.90